createdAt,value
2023-01-09T00:01:58.760Z,101003.47
2023-01-09T00:04:29.359Z,101007.41
2023-01-09T00:07:00.651Z,101001.31
2023-01-09T00:09:31.624Z,101006.00
2023-01-09T00:12:05.436Z,101014.09
2023-01-09T00:14:35.873Z,101008.53
2023-01-09T00:17:07.327Z,101016.66
2023-01-09T00:19:37.982Z,101010.00
2023-01-09T00:22:11.370Z,101015.44
2023-01-09T00:24:41.823Z,101023.59
2023-01-09T00:27:12.817Z,101019.88
2023-01-09T00:29:45.941Z,101019.69
2023-01-09T00:32:17.609Z,101017.69
2023-01-09T00:34:48.990Z,101025.44
2023-01-09T00:37:19.945Z,101021.78
2023-01-09T00:39:50.225Z,101023.09
2023-01-09T00:42:24.435Z,101021.94
2023-01-09T00:45:01.284Z,101030.63
2023-01-09T00:47:37.075Z,101033.09
2023-01-09T00:50:12.458Z,101032.34
2023-01-09T00:52:45.000Z,101034.09
2023-01-09T00:55:16.548Z,101040.22
2023-01-09T00:57:48.444Z,101039.28
2023-01-09T01:00:20.572Z,101042.78
2023-01-09T01:02:51.749Z,101043.06
2023-01-09T01:05:40.417Z,101047.50
2023-01-09T01:08:19.882Z,101046.50
2023-01-09T01:10:51.067Z,101044.81
2023-01-09T01:13:24.853Z,101047.00
2023-01-09T01:15:55.286Z,101047.72
2023-01-09T01:18:26.488Z,101046.78
2023-01-09T01:20:57.200Z,101052.47
2023-01-09T01:23:29.179Z,101056.91
2023-01-09T01:25:59.343Z,101056.66
2023-01-09T01:28:30.021Z,101057.63
2023-01-09T01:31:00.432Z,101060.84
2023-01-09T01:33:31.493Z,101045.91
2023-01-09T01:36:10.230Z,101059.16
2023-01-09T01:38:41.427Z,101062.56
2023-01-09T01:41:12.114Z,101058.69
2023-01-09T01:43:52.795Z,101062.59
2023-01-09T01:46:23.505Z,101053.03
2023-01-09T01:49:17.193Z,101061.88
2023-01-09T01:51:51.756Z,101056.22
2023-01-09T01:54:26.399Z,101051.31
2023-01-09T01:57:02.656Z,101056.00
2023-01-09T01:59:40.791Z,101050.56
2023-01-09T02:02:12.434Z,101046.66
2023-01-09T02:04:46.101Z,101051.81
2023-01-09T02:07:16.282Z,101051.56
2023-01-09T02:09:47.952Z,101048.84
2023-01-09T02:12:27.569Z,101046.91
2023-01-09T02:15:16.900Z,101039.28
2023-01-09T02:18:02.834Z,101044.22
2023-01-09T02:20:36.573Z,101037.06
2023-01-09T02:23:43.582Z,101033.13
2023-01-09T02:26:38.913Z,101029.47
2023-01-09T02:29:33.092Z,101032.91
2023-01-09T02:32:12.812Z,101024.78
2023-01-09T02:34:59.677Z,101029.47
2023-01-09T02:37:57.921Z,101028.97
2023-01-09T02:41:11.071Z,101029.72
2023-01-09T02:43:42.991Z,101029.22
2023-01-09T02:46:24.244Z,101023.81
2023-01-09T02:48:56.453Z,101012.97
2023-01-09T02:51:49.361Z,101012.47
2023-01-09T02:54:50.659Z,101017.16
2023-01-09T02:57:42.436Z,101007.56
2023-01-09T03:00:31.403Z,100998.47
2023-01-09T03:03:13.556Z,101008.06
2023-01-09T03:05:53.448Z,101007.59
2023-01-09T03:08:27.000Z,100992.28
2023-01-09T03:11:08.936Z,100998.22
2023-01-09T03:13:48.637Z,100989.84
2023-01-09T03:16:27.323Z,100967.75
2023-01-09T03:19:00.706Z,100984.69
2023-01-09T03:21:32.571Z,100983.97
2023-01-09T03:24:03.975Z,100976.34
2023-01-09T03:26:34.893Z,100977.56
2023-01-09T03:29:05.022Z,100976.56
2023-01-09T03:31:35.329Z,100973.34
2023-01-09T03:34:05.746Z,100973.81
2023-01-09T03:36:35.992Z,100971.88
2023-01-09T03:39:06.672Z,100969.69
2023-01-09T03:41:36.885Z,100962.53
2023-01-09T03:44:07.374Z,100967.47
2023-01-09T03:46:37.672Z,100953.88
2023-01-09T03:49:08.062Z,100951.94
2023-01-09T03:51:38.075Z,100947.50
2023-01-09T03:54:11.461Z,100947.03
2023-01-09T03:56:41.725Z,100951.69
2023-01-09T03:59:12.089Z,100955.34
2023-01-09T04:01:42.556Z,100948.25
2023-01-09T04:04:13.164Z,100940.66
2023-01-09T04:06:43.379Z,100954.38
2023-01-09T04:09:13.787Z,100941.84
2023-01-09T04:11:43.982Z,100936.44
2023-01-09T04:14:14.312Z,100929.09
2023-01-09T04:16:44.777Z,100936.22
2023-01-09T04:19:15.191Z,100928.63
2023-01-09T04:21:45.372Z,100929.84
2023-01-09T04:24:15.877Z,100923.69
2023-01-09T04:26:45.669Z,100923.47
2023-01-09T04:29:16.022Z,100916.53
2023-01-09T04:31:46.401Z,100916.81
2023-01-09T04:34:16.739Z,100912.16
2023-01-09T04:36:46.969Z,100919.03
2023-01-09T04:39:17.356Z,100905.50
2023-01-09T04:41:50.684Z,100907.72
2023-01-09T04:44:23.951Z,100896.16
2023-01-09T04:46:54.937Z,100890.03
2023-01-09T04:49:25.592Z,100888.31
2023-01-09T04:51:56.197Z,100869.38
2023-01-09T04:54:26.556Z,100885.09
2023-01-09T04:56:56.933Z,100880.69
2023-01-09T04:59:27.292Z,100876.72
2023-01-09T05:01:59.594Z,100867.38
2023-01-09T05:04:33.161Z,100861.97
2023-01-09T05:07:03.894Z,100862.97
2023-01-09T05:09:34.253Z,100860.50
2023-01-09T05:12:04.646Z,100861.00
2023-01-09T05:14:35.072Z,100864.94
2023-01-09T05:17:05.368Z,100866.91
2023-01-09T05:19:35.779Z,100857.31
2023-01-09T05:22:06.071Z,100847.44
2023-01-09T05:24:36.493Z,100855.25
2023-01-09T05:27:06.704Z,100854.06
2023-01-09T05:29:39.995Z,100848.81
2023-01-09T05:32:10.365Z,100854.75
2023-01-09T05:34:40.719Z,100838.84
2023-01-09T05:37:11.003Z,100841.09
2023-01-09T05:39:41.410Z,100830.53
2023-01-09T05:42:11.590Z,100842.34
2023-01-09T05:44:42.015Z,100839.59
2023-01-09T05:47:12.202Z,100829.00
2023-01-09T05:49:42.815Z,100824.06
2023-01-09T05:52:13.105Z,100836.59
2023-01-09T05:54:43.474Z,100821.56
2023-01-09T05:57:13.677Z,100826.00
2023-01-09T05:59:44.083Z,100829.38
2023-01-09T06:02:14.368Z,100832.31
2023-01-09T06:04:47.239Z,100829.59
2023-01-09T06:07:20.465Z,100819.66
2023-01-09T06:09:52.486Z,100824.09
2023-01-09T06:12:22.735Z,100821.38
2023-01-09T06:14:53.108Z,100823.75
2023-01-09T06:17:24.013Z,100821.81
2023-01-09T06:19:58.551Z,100826.69
2023-01-09T06:22:28.883Z,100822.97
2023-01-09T06:24:59.260Z,100813.88
2023-01-09T06:27:29.515Z,100807.34
2023-01-09T06:29:59.928Z,100818.44
2023-01-09T06:32:30.483Z,100824.75
2023-01-09T06:35:00.869Z,100824.56
2023-01-09T06:37:31.161Z,100817.63
2023-01-09T06:40:01.548Z,100811.66
2023-01-09T06:42:31.743Z,100816.56
2023-01-09T06:45:02.150Z,100803.91
2023-01-09T06:47:32.441Z,100803.19
2023-01-09T06:50:02.783Z,100812.09
2023-01-09T06:52:33.062Z,100805.94
2023-01-09T06:55:03.653Z,100802.75
2023-01-09T06:57:33.301Z,100807.66
2023-01-09T07:00:03.930Z,100810.13
2023-01-09T07:02:34.224Z,100803.72
2023-01-09T07:05:05.894Z,100795.63
2023-01-09T07:07:36.489Z,100793.16
2023-01-09T07:10:07.400Z,100798.78
2023-01-09T07:12:37.633Z,100807.94
2023-01-09T07:15:08.578Z,100813.31
2023-01-09T07:17:39.074Z,100810.13
2023-01-09T07:20:11.605Z,100801.03
2023-01-09T07:22:41.805Z,100803.22
2023-01-09T07:25:12.202Z,100797.09
2023-01-09T07:27:42.541Z,100807.19
2023-01-09T07:30:13.533Z,100805.94
2023-01-09T07:32:43.998Z,100808.41
2023-01-09T07:35:14.482Z,100800.81
2023-01-09T07:37:44.671Z,100811.13
2023-01-09T07:40:15.621Z,100810.09
2023-01-09T07:42:45.840Z,100821.19
2023-01-09T07:45:16.327Z,100811.09
2023-01-09T07:47:46.612Z,100790.19
2023-01-09T07:50:16.981Z,100806.19
2023-01-09T07:52:50.406Z,100807.59
2023-01-09T07:55:20.865Z,100805.69
2023-01-09T07:57:52.442Z,100808.06
2023-01-09T08:00:23.259Z,100810.56
2023-01-09T08:02:55.164Z,100807.66
2023-01-09T08:05:25.735Z,100807.91
2023-01-09T08:07:55.940Z,100815.53
2023-01-09T08:10:26.365Z,100819.25
2023-01-09T08:12:56.618Z,100813.31
2023-01-09T08:15:26.954Z,100814.31
2023-01-09T08:17:57.223Z,100822.16
2023-01-09T08:20:28.628Z,100825.09
2023-01-09T08:22:58.867Z,100832.00
2023-01-09T08:25:29.302Z,100825.34
2023-01-09T08:27:59.515Z,100826.56
2023-01-09T08:30:30.926Z,100831.47
2023-01-09T08:33:01.241Z,100833.94
2023-01-09T08:35:31.806Z,100826.56
2023-01-09T08:38:02.062Z,100830.53
2023-01-09T08:40:32.511Z,100822.41
2023-01-09T08:43:21.089Z,100831.72
2023-01-09T08:46:11.021Z,100817.50
2023-01-09T08:48:41.229Z,100836.91
2023-01-09T08:51:12.568Z,100833.94
2023-01-09T08:53:42.799Z,100840.81
2023-01-09T08:56:13.136Z,100836.66
2023-01-09T08:58:43.622Z,100838.88
2023-01-09T09:01:14.050Z,100844.00
2023-01-09T09:03:44.384Z,100845.03
2023-01-09T09:06:14.762Z,100846.72
2023-01-09T09:08:45.012Z,100850.59
2023-01-09T09:11:15.438Z,100851.97
2023-01-09T09:13:45.669Z,100862.19
2023-01-09T09:16:16.092Z,100858.72
2023-01-09T09:18:48.573Z,100862.16
2023-01-09T09:21:19.601Z,100853.47
2023-01-09T09:23:49.806Z,100865.19
2023-01-09T09:26:20.140Z,100869.78
2023-01-09T09:28:50.354Z,100869.63
2023-01-09T09:31:20.823Z,100866.03
2023-01-09T09:33:51.590Z,100866.75
2023-01-09T09:36:21.989Z,100868.59
2023-01-09T09:38:51.705Z,100869.94
2023-01-09T09:42:00.225Z,100862.06
2023-01-09T09:45:06.263Z,100870.91
2023-01-09T09:47:46.832Z,100878.91
2023-01-09T09:50:38.244Z,100883.31
2023-01-09T09:53:17.376Z,100880.47
2023-01-09T09:55:51.182Z,100885.50
2023-01-09T09:58:30.923Z,100887.25
2023-01-09T10:01:03.174Z,100880.00
2023-01-09T10:03:48.870Z,100886.88
2023-01-09T10:06:52.565Z,100890.22
2023-01-09T10:09:50.579Z,100893.13
2023-01-09T10:12:46.553Z,100886.91
2023-01-09T10:15:40.866Z,100890.34
2023-01-09T10:18:34.868Z,100905.44
2023-01-09T10:21:35.533Z,100909.38
2023-01-09T10:24:45.949Z,100910.66
2023-01-09T10:27:35.403Z,100920.91
2023-01-09T10:30:25.518Z,100932.50
2023-01-09T10:33:17.508Z,100932.81
2023-01-09T10:36:41.001Z,100927.88
2023-01-09T10:39:20.526Z,100931.78
2023-01-09T10:42:01.969Z,100926.31
2023-01-09T10:44:39.926Z,100930.28
2023-01-09T10:47:29.395Z,100937.78
2023-01-09T10:50:00.470Z,100938.84
2023-01-09T10:52:43.325Z,100943.00
2023-01-09T10:55:40.954Z,100944.25
2023-01-09T10:58:23.038Z,100953.03
2023-01-09T11:00:53.258Z,100965.56
2023-01-09T11:03:26.421Z,100966.88
2023-01-09T11:06:01.847Z,100965.13
2023-01-09T11:08:41.388Z,100967.81
2023-01-09T11:11:32.635Z,100953.50
2023-01-09T11:14:16.143Z,100944.41
2023-01-09T11:16:56.172Z,100958.59
2023-01-09T11:19:28.342Z,100955.84
2023-01-09T11:22:30.098Z,100962.19
2023-01-09T11:25:06.732Z,100967.53
2023-01-09T11:27:36.351Z,100965.69
2023-01-09T11:30:17.279Z,100963.22
2023-01-09T11:32:48.654Z,100976.28
2023-01-09T11:35:35.030Z,100970.56
2023-01-09T11:38:09.347Z,100972.22
2023-01-09T11:40:51.165Z,100966.69
2023-01-09T11:43:31.567Z,100971.19
2023-01-09T11:46:08.196Z,100966.69
2023-01-09T11:49:03.609Z,100955.63
2023-01-09T11:51:36.935Z,100960.13
2023-01-09T11:54:09.767Z,100965.03
2023-01-09T11:56:43.214Z,100960.00
2023-01-09T11:59:21.277Z,100955.78
2023-01-09T12:02:18.329Z,100959.91
2023-01-09T12:05:36.509Z,100955.34
2023-01-09T12:08:30.068Z,100959.13
2023-01-09T12:11:09.184Z,100958.94
2023-01-09T12:14:13.560Z,100953.09
2023-01-09T12:17:20.450Z,100941.88
2023-01-09T12:20:10.512Z,100953.44
2023-01-09T12:22:52.685Z,100963.50
2023-01-09T12:25:59.288Z,100956.31
2023-01-09T12:28:49.013Z,100957.06
2023-01-09T12:31:42.839Z,100956.56
2023-01-09T12:34:45.999Z,100950.25
2023-01-09T12:37:54.591Z,100946.88
2023-01-09T12:40:53.339Z,100937.66
2023-01-09T12:43:30.236Z,100947.78
2023-01-09T12:46:17.667Z,100947.25
2023-01-09T12:48:52.362Z,100946.03
2023-01-09T12:51:43.661Z,100942.13
2023-01-09T12:54:43.996Z,100943.19
2023-01-09T12:57:30.092Z,100947.44
2023-01-09T13:00:21.948Z,100943.13
2023-01-09T13:03:11.376Z,100950.66
2023-01-09T13:05:51.779Z,100943.50
2023-01-09T13:08:58.986Z,100941.94
2023-01-09T13:11:39.226Z,100941.03
2023-01-09T13:14:19.485Z,100937.06
2023-01-09T13:16:54.801Z,100944.13
2023-01-09T13:19:38.603Z,100938.03
2023-01-09T13:22:14.326Z,100936.25
2023-01-09T13:25:29.158Z,100938.44
2023-01-09T13:28:07.903Z,100918.03
2023-01-09T13:31:09.912Z,100921.00
2023-01-09T13:33:47.647Z,100922.03
2023-01-09T13:36:29.258Z,100919.00
2023-01-09T13:39:01.575Z,100927.38
2023-01-09T13:41:51.989Z,100918.25
2023-01-09T13:44:31.005Z,100921.31
2023-01-09T13:47:04.568Z,100914.47
2023-01-09T13:49:54.786Z,100918.84
2023-01-09T13:52:39.727Z,100902.19
2023-01-09T13:55:16.284Z,100899.50
2023-01-09T13:58:05.076Z,100893.59
2023-01-09T14:00:38.450Z,100889.75
2023-01-09T14:03:22.767Z,100887.47
2023-01-09T14:05:53.360Z,100886.38
2023-01-09T14:08:26.094Z,100884.94
2023-01-09T14:11:02.397Z,100881.25
2023-01-09T14:13:40.247Z,100885.03
2023-01-09T14:16:17.941Z,100861.94
2023-01-09T14:18:59.366Z,100876.09
2023-01-09T14:21:46.565Z,100873.44
2023-01-09T14:24:30.389Z,100859.06
2023-01-09T14:27:03.394Z,100865.28
2023-01-09T14:29:33.491Z,100850.41
2023-01-09T14:32:26.322Z,100866.50
2023-01-09T14:35:05.383Z,100861.25
2023-01-09T14:37:38.866Z,100847.94
2023-01-09T14:40:32.151Z,100852.34
2023-01-09T14:43:13.696Z,100824.56
2023-01-09T14:45:49.940Z,100838.88
2023-01-09T14:48:20.846Z,100834.72
2023-01-09T14:51:00.001Z,100831.84
2023-01-09T14:53:36.033Z,100837.78
2023-01-09T14:56:09.491Z,100828.72
2023-01-09T14:58:40.501Z,100823.63
2023-01-09T15:01:19.885Z,100820.53
2023-01-09T15:04:00.361Z,100801.53
2023-01-09T15:06:34.054Z,100802.66
2023-01-09T15:09:47.573Z,100804.59
2023-01-09T15:12:25.473Z,100797.22
2023-01-09T15:15:00.251Z,100798.94
2023-01-09T15:17:37.214Z,100783.13
2023-01-09T15:20:09.635Z,100774.31
2023-01-09T15:22:40.068Z,100770.44
2023-01-09T15:25:27.482Z,100775.03
2023-01-09T15:28:22.100Z,100774.84
2023-01-09T15:31:13.800Z,100769.75
2023-01-09T15:33:46.806Z,100758.00
2023-01-09T15:36:24.475Z,100748.25
2023-01-09T15:38:55.715Z,100749.66
2023-01-09T15:41:47.794Z,100753.19
2023-01-09T15:44:28.020Z,100746.91
2023-01-09T15:47:01.487Z,100748.03
2023-01-09T15:49:33.288Z,100741.34
2023-01-09T15:52:04.880Z,100735.59
2023-01-09T15:54:36.341Z,100734.44
2023-01-09T15:57:28.701Z,100736.75
2023-01-09T16:00:19.336Z,100722.59
2023-01-09T16:03:08.452Z,100721.72
2023-01-09T16:05:48.555Z,100723.69
2023-01-09T16:08:31.598Z,100713.88
2023-01-09T16:11:10.577Z,100710.44
2023-01-09T16:13:47.013Z,100695.41
2023-01-09T16:16:24.930Z,100709.91
2023-01-09T16:18:57.405Z,100700.75
2023-01-09T16:21:38.936Z,100695.88
2023-01-09T16:24:18.896Z,100696.00
2023-01-09T16:26:49.064Z,100692.25
2023-01-09T16:29:39.959Z,100691.09
2023-01-09T16:32:24.155Z,100690.03
2023-01-09T16:34:56.590Z,100697.50
2023-01-09T16:37:28.353Z,100680.41
2023-01-09T16:40:09.937Z,100682.16
2023-01-09T16:42:58.694Z,100665.56
2023-01-09T16:45:34.463Z,100672.88
2023-01-09T16:48:16.278Z,100668.75
2023-01-09T16:50:46.651Z,100666.38
2023-01-09T16:53:25.225Z,100661.03
2023-01-09T16:55:56.145Z,100651.84
2023-01-09T16:58:32.927Z,100645.41
2023-01-09T17:01:03.468Z,100640.97
2023-01-09T17:03:34.301Z,100649.88
2023-01-09T17:06:07.119Z,100638.97
2023-01-09T17:08:39.065Z,100634.88
2023-01-09T17:11:24.657Z,100638.13
2023-01-09T17:13:55.134Z,100637.81
2023-01-09T17:16:25.863Z,100638.00
2023-01-09T17:18:56.710Z,100628.53
2023-01-09T17:21:32.279Z,100621.34
2023-01-09T17:24:20.996Z,100622.00
2023-01-09T17:27:11.687Z,100627.09
2023-01-09T17:29:42.181Z,100621.66
2023-01-09T17:32:17.800Z,100620.78
2023-01-09T17:34:47.817Z,100624.97
2023-01-09T17:37:19.653Z,100606.00
2023-01-09T17:39:50.227Z,100616.31
2023-01-09T17:42:20.648Z,100592.91
2023-01-09T17:44:51.172Z,100610.88
2023-01-09T17:47:21.385Z,100601.25
2023-01-09T17:49:51.865Z,100607.03
2023-01-09T17:52:23.221Z,100602.13
2023-01-09T17:54:53.688Z,100608.38
2023-01-09T17:57:24.240Z,100592.81
2023-01-09T17:59:54.643Z,100590.06
2023-01-09T18:02:25.268Z,100588.03
2023-01-09T18:04:55.719Z,100580.75
2023-01-09T18:07:27.048Z,100579.00
2023-01-09T18:09:57.662Z,100587.31
2023-01-09T18:12:28.423Z,100581.91
2023-01-09T18:14:58.888Z,100575.47
2023-01-09T18:18:05.733Z,100581.88
2023-01-09T18:20:36.074Z,100573.25
2023-01-09T18:23:06.151Z,100581.50
2023-01-09T18:25:36.857Z,100571.66
2023-01-09T18:28:07.223Z,100580.53
2023-01-09T18:30:38.132Z,100565.06
2023-01-09T18:33:55.884Z,100560.56
2023-01-09T18:36:31.354Z,100559.78
2023-01-09T18:39:04.110Z,100562.19
2023-01-09T18:41:34.694Z,100564.47
2023-01-09T18:44:05.096Z,100544.31
2023-01-09T18:46:35.662Z,100560.75
2023-01-09T18:49:06.955Z,100559.78
2023-01-09T18:51:38.011Z,100558.59
2023-01-09T18:54:12.921Z,100563.63
2023-01-09T18:56:43.443Z,100563.97
2023-01-09T18:59:13.897Z,100553.34
2023-01-09T19:01:44.541Z,100546.69
2023-01-09T19:04:14.909Z,100557.19
2023-01-09T19:06:45.363Z,100539.63
2023-01-09T19:09:15.909Z,100543.16
2023-01-09T19:11:47.218Z,100539.19
2023-01-09T19:14:58.585Z,100549.25
2023-01-09T19:17:28.992Z,100550.84
2023-01-09T19:19:59.358Z,100543.75
2023-01-09T19:22:30.420Z,100534.44
2023-01-09T19:25:00.882Z,100542.47
2023-01-09T19:27:40.043Z,100540.63
2023-01-09T19:30:11.696Z,100531.88
2023-01-09T19:32:42.571Z,100541.38
2023-01-09T19:35:12.987Z,100536.81
2023-01-09T19:37:43.304Z,100531.31
2023-01-09T19:40:14.022Z,100522.38
2023-01-09T19:42:44.420Z,100526.75
2023-01-09T19:45:15.007Z,100525.41
2023-01-09T19:47:46.533Z,100514.50
2023-01-09T19:50:18.908Z,100533.72
2023-01-09T19:52:49.156Z,100531.22
2023-01-09T19:55:19.439Z,100527.78
2023-01-09T19:57:49.741Z,100524.22
2023-01-09T20:00:20.304Z,100532.13
2023-01-09T20:02:51.628Z,100525.09
2023-01-09T20:05:21.986Z,100520.81
2023-01-09T20:07:59.038Z,100528.81
2023-01-09T20:10:29.255Z,100528.47
2023-01-09T20:12:59.724Z,100529.69
2023-01-09T20:15:29.940Z,100521.63
2023-01-09T20:18:00.900Z,100520.31
2023-01-09T20:20:31.097Z,100511.53
2023-01-09T20:23:01.466Z,100514.63
2023-01-09T20:25:31.851Z,100521.28
2023-01-09T20:28:02.180Z,100502.53
2023-01-09T20:30:32.308Z,100525.53
2023-01-09T20:33:02.564Z,100518.44
2023-01-09T20:35:33.408Z,100530.59
2023-01-09T20:38:04.864Z,100517.00
2023-01-09T20:40:37.577Z,100530.94
2023-01-09T20:43:09.704Z,100530.06
2023-01-09T20:45:41.285Z,100532.13
2023-01-09T20:48:12.321Z,100533.38
2023-01-09T20:50:43.108Z,100537.03
2023-01-09T20:53:13.518Z,100531.16
2023-01-09T20:55:43.720Z,100544.34
2023-01-09T20:58:14.193Z,100538.28
2023-01-09T21:00:44.554Z,100541.75
2023-01-09T21:03:17.797Z,100539.13
2023-01-09T21:05:48.126Z,100533.06
2023-01-09T21:08:19.119Z,100537.13
2023-01-09T21:10:49.454Z,100533.50
2023-01-09T21:13:19.891Z,100527.84
2023-01-09T21:15:50.231Z,100524.16
2023-01-09T21:18:20.732Z,100532.91
2023-01-09T21:20:51.254Z,100537.00
2023-01-09T21:23:24.652Z,100531.13
2023-01-09T21:25:54.956Z,100540.31
2023-01-09T21:28:26.374Z,100517.84
2023-01-09T21:30:56.775Z,100533.06
2023-01-09T21:33:27.216Z,100532.63
2023-01-09T21:35:59.818Z,100527.22
2023-01-09T21:38:30.201Z,100536.50
2023-01-09T21:41:20.264Z,100536.19
2023-01-09T21:44:09.180Z,100534.25
2023-01-09T21:46:57.000Z,100532.97
2023-01-09T21:49:30.815Z,100537.31
2023-01-09T21:52:01.117Z,100538.75
2023-01-09T21:54:32.450Z,100532.09
2023-01-09T21:57:04.446Z,100541.00
2023-01-09T21:59:35.100Z,100544.59
2023-01-09T22:02:05.569Z,100547.13
2023-01-09T22:04:36.305Z,100537.53
2023-01-09T22:07:06.695Z,100546.63
2023-01-09T22:09:38.618Z,100561.34
2023-01-09T22:12:10.352Z,100563.50
2023-01-09T22:14:41.252Z,100573.53
2023-01-09T22:17:12.437Z,100568.19
2023-01-09T22:19:42.832Z,100562.84
2023-01-09T22:22:13.015Z,100561.03
2023-01-09T22:24:43.569Z,100566.50
2023-01-09T22:27:13.788Z,100573.41
2023-01-09T22:29:44.134Z,100575.28
2023-01-09T22:32:14.554Z,100571.28
2023-01-09T22:34:44.960Z,100573.88
2023-01-09T22:37:15.363Z,100574.97
2023-01-09T22:39:45.730Z,100579.00
2023-01-09T22:42:18.128Z,100574.25
2023-01-09T22:44:48.621Z,100558.03
2023-01-09T22:47:18.996Z,100584.09
2023-01-09T22:49:53.476Z,100584.06
2023-01-09T22:52:24.984Z,100584.97
2023-01-09T22:54:55.372Z,100575.00
2023-01-09T22:57:25.592Z,100577.50
2023-01-09T22:59:55.924Z,100573.88
2023-01-09T23:02:26.508Z,100589.16
2023-01-09T23:04:59.483Z,100588.03
2023-01-09T23:07:30.053Z,100592.19
2023-01-09T23:10:03.061Z,100589.66
2023-01-09T23:12:34.197Z,100585.44
2023-01-09T23:15:04.603Z,100600.00
2023-01-09T23:17:35.008Z,100606.19
2023-01-09T23:20:05.809Z,100605.41
2023-01-09T23:22:36.027Z,100611.19
2023-01-09T23:25:06.800Z,100602.03
2023-01-09T23:27:37.142Z,100603.06
2023-01-09T23:30:08.159Z,100598.28
2023-01-09T23:32:41.456Z,100601.13
2023-01-09T23:35:12.149Z,100604.06
2023-01-09T23:37:42.476Z,100604.38
2023-01-09T23:40:13.646Z,100601.53
2023-01-09T23:43:02.126Z,100608.00
2023-01-09T23:45:32.845Z,100611.63
2023-01-09T23:48:03.252Z,100602.72
2023-01-09T23:50:34.224Z,100617.56
2023-01-09T23:53:04.890Z,100631.41
2023-01-09T23:55:38.280Z,100624.75
2023-01-09T23:58:08.769Z,100622.38
